Time;durP1;ratioP1;P1;durP2;ratioP2;P2;SDS_P1;SDS_P2;PMS_P1;PMS_P2;Temp;Humidity;BMP_temperature;BMP_pressure;BME280_temperature;BME280_humidity;BME280_pressure;Samples;Min_cycle;Max_cycle;Signal;HPM_P1;HPM_P2
2022/08/02 00:00:15;;;;;;;4.25;2.70;;;;;;;15.06;99.37;96340.06;2071511;28;20050;-42
2022/08/02 00:01:16;;;;;;;7.28;2.75;;;;;;;15.04;99.04;96341.91;2064409;28;20045;-43
2022/08/02 00:02:18;;;;;;;5.45;2.92;;;;;;;15.00;99.36;96336.03;2071609;28;20046;-41
2022/08/02 00:03:19;;;;;;;3.78;2.63;;;;;;;15.02;99.36;96339.38;2064400;28;20050;-43
2022/08/02 00:04:20;;;;;;;5.15;2.78;;;;;;;15.01;99.12;96337.72;2064086;28;20046;-45
2022/08/02 00:05:21;;;;;;;3.47;2.50;;;;;;;15.00;99.64;96339.47;2064456;28;20389;-42
2022/08/02 00:06:22;;;;;;;3.85;2.47;;;;;;;15.04;99.06;96340.13;2063790;28;20038;-41
2022/08/02 00:07:24;;;;;;;4.78;3.05;;;;;;;15.02;98.89;96341.16;2047592;28;20043;-41
2022/08/02 00:08:25;;;;;;;5.00;2.35;;;;;;;15.02;98.95;96339.38;2055487;28;20046;-44
2022/08/02 00:09:26;;;;;;;4.55;2.63;;;;;;;15.03;98.58;96335.84;2041816;28;20048;-42
2022/08/02 00:10:27;;;;;;;5.57;2.88;;;;;;;15.04;99.37;96339.31;2047927;28;20050;-41
2022/08/02 00:11:28;;;;;;;4.15;2.70;;;;;;;15.04;99.51;96334.06;2047937;28;20043;-41
2022/08/02 00:12:30;;;;;;;6.25;2.85;;;;;;;15.08;99.64;96338.19;2047751;29;20437;-39
2022/08/02 00:13:31;;;;;;;6.50;3.10;;;;;;;15.00;99.98;96333.41;2048046;28;20043;-44
2022/08/02 00:14:32;;;;;;;3.97;2.58;;;;;;;14.97;99.45;96331.81;2063895;28;20050;-41
2022/08/02 00:15:33;;;;;;;4.63;2.67;;;;;;;15.00;99.80;96329.03;2064306;28;20042;-40
2022/08/02 00:16:34;;;;;;;6.40;3.22;;;;;;;15.04;99.62;96332.28;2064219;28;20042;-41
2022/08/02 00:17:36;;;;;;;5.13;3.08;;;;;;;14.95;100.00;96331.06;2055843;28;20043;-41
2022/08/02 00:18:37;;;;;;;4.03;2.60;;;;;;;14.93;99.86;96335.53;2055427;28;20513;-45
2022/08/02 00:19:38;;;;;;;3.85;2.22;;;;;;;14.92;99.18;96331.25;2055748;28;20046;-41
2022/08/02 00:20:39;;;;;;;4.00;2.40;;;;;;;14.91;99.71;96336.56;2039667;29;20048;-43
2022/08/02 00:21:40;;;;;;;4.85;2.40;;;;;;;14.92;99.23;96338.25;2039979;29;20039;-40
2022/08/02 00:22:41;;;;;;;5.10;2.72;;;;;;;14.92;99.37;96336.47;2055314;28;20046;-41
2022/08/02 00:23:43;;;;;;;4.20;2.60;;;;;;;14.90;99.98;96334.91;2063716;28;20057;-42
2022/08/02 00:24:44;;;;;;;4.38;2.63;;;;;;;14.92;99.09;96331.25;2063841;28;20050;-42
2022/08/02 00:25:45;;;;;;;6.90;2.70;;;;;;;14.92;98.70;96325.19;2056372;28;20046;-45
2022/08/02 00:26:46;;;;;;;4.40;2.90;;;;;;;14.89;99.11;96328.81;2056183;28;20434;-42
2022/08/02 00:27:47;;;;;;;4.10;2.60;;;;;;;14.90;99.26;96324.44;2055873;28;20063;-44
2022/08/02 00:28:48;;;;;;;3.78;2.33;;;;;;;14.93;99.13;96319.00;2048025;28;20055;-42
2022/08/02 00:29:50;;;;;;;5.22;2.90;;;;;;;14.94;99.30;96320.69;2055501;28;20046;-42
2022/08/02 00:30:52;;;;;;;5.25;3.00;;;;;;;14.93;99.49;96324.25;2056124;28;20069;-42
2022/08/02 00:31:53;;;;;;;4.40;2.65;;;;;;;14.91;100.00;96324.31;2055995;28;20057;-43
2022/08/02 00:32:54;;;;;;;4.60;2.92;;;;;;;14.93;99.58;96321.63;2056130;28;20072;-43
2022/08/02 00:33:55;;;;;;;7.13;3.17;;;;;;;14.92;99.35;96326.03;2063750;28;20042;-44
2022/08/02 00:34:56;;;;;;;4.68;2.90;;;;;;;14.91;99.73;96323.50;2047314;29;20066;-42
2022/08/02 00:35:58;;;;;;;5.75;2.58;;;;;;;14.91;99.99;96318.25;2040488;29;20051;-44
2022/08/02 00:36:59;;;;;;;3.90;2.40;;;;;;;14.93;99.41;96327.69;2064018;28;20050;-43
2022/08/02 00:38:01;;;;;;;5.03;2.70;;;;;;;14.94;99.39;96318.94;2064937;28;20101;-44
2022/08/02 00:39:02;;;;;;;4.95;2.80;;;;;;;15.00;99.95;96322.97;2072748;28;20061;-43
2022/08/02 00:40:04;;;;;;;5.05;2.65;;;;;;;14.96;99.97;96326.69;2057708;28;20560;-46
2022/08/02 00:41:11;;;;;;;4.57;3.10;;;;;;;14.93;99.33;96324.25;2058191;28;20066;-44
2022/08/02 00:42:14;;;;;;;6.00;3.17;;;;;;;14.91;99.69;96329.56;2066794;28;20419;-44
2022/08/02 00:43:15;;;;;;;3.55;2.35;;;;;;;14.93;100.00;96326.88;2072890;28;20098;-43
2022/08/02 00:44:17;;;;;;;5.95;2.90;;;;;;;14.94;100.00;96321.56;2049355;28;20432;-43
2022/08/02 00:45:18;;;;;;;6.80;3.40;;;;;;;14.95;99.87;96325.00;2049838;28;20441;-44
2022/08/02 00:46:20;;;;;;;5.93;3.38;;;;;;;14.92;100.00;96320.78;2064892;28;20049;-42
2022/08/02 00:47:21;;;;;;;4.82;3.20;;;;;;;14.91;100.00;96324.31;2073064;28;20532;-43
2022/08/02 00:48:22;;;;;;;6.43;2.90;;;;;;;14.91;100.00;96316.47;2065416;28;20385;-43
2022/08/02 00:49:24;;;;;;;4.85;2.80;;;;;;;14.93;100.00;96319.84;2063129;28;20042;-44
2022/08/02 00:50:26;;;;;;;5.03;3.28;;;;;;;14.95;100.00;96317.16;2057088;28;20536;-43
2022/08/02 00:51:27;;;;;;;4.65;3.38;;;;;;;14.94;100.00;96321.56;2033666;29;20501;-44
2022/08/02 00:52:28;;;;;;;9.13;3.65;;;;;;;14.93;100.00;96317.25;2033029;29;20548;-42
2022/08/02 00:53:29;;;;;;;5.15;3.20;;;;;;;14.94;100.00;96318.06;2041305;29;20055;-45
2022/08/02 00:54:30;;;;;;;5.45;3.17;;;;;;;14.96;100.00;96311.81;2049129;28;20062;-44
2022/08/02 00:55:32;;;;;;;5.03;3.08;;;;;;;14.99;100.00;96326.50;2057279;28;20049;-44
2022/08/02 00:56:33;;;;;;;6.53;3.38;;;;;;;15.05;100.00;96328.75;2041494;29;20040;-43
2022/08/02 00:57:34;;;;;;;5.75;3.53;;;;;;;15.02;100.00;96323.69;2033948;29;20059;-47
2022/08/02 00:58:36;;;;;;;5.80;3.08;;;;;;;15.03;100.00;96337.63;2041039;28;20050;-41
2022/08/02 00:59:37;;;;;;;4.93;3.42;;;;;;;15.02;99.93;96330.69;2057155;28;20039;-44
2022/08/02 01:00:38;;;;;;;5.68;3.10;;;;;;;15.00;100.00;96328.19;2065546;28;20416;-41
2022/08/02 01:01:40;;;;;;;4.75;3.20;;;;;;;15.03;100.00;96332.41;2065699;28;20484;-42
2022/08/02 01:02:41;;;;;;;4.90;2.90;;;;;;;15.03;100.00;96330.63;2049314;28;20051;-44
2022/08/02 01:03:43;;;;;;;4.65;3.25;;;;;;;15.04;100.00;96324.44;2041498;28;20039;-41
2022/08/02 01:04:44;;;;;;;5.00;2.97;;;;;;;15.04;99.66;96328.84;2049601;28;20047;-41
2022/08/02 01:05:46;;;;;;;5.47;3.47;;;;;;;15.08;99.83;96335.59;2056687;28;20054;-42
2022/08/02 01:06:47;;;;;;;6.03;3.30;;;;;;;15.07;99.38;96329.50;2049486;29;20565;-45
2022/08/02 01:07:48;;;;;;;4.88;3.50;;;;;;;15.06;99.20;96338.28;2048929;29;20074;-43
2022/08/02 01:08:49;;;;;;;6.50;3.60;;;;;;;15.05;99.83;96333.13;2049405;28;20061;-45
2022/08/02 01:09:50;;;;;;;4.35;3.20;;;;;;;15.08;100.00;96338.19;2053311;28;20061;-42
2022/08/02 01:10:52;;;;;;;5.82;3.47;;;;;;;15.06;100.00;96338.28;2033239;29;20075;-42
2022/08/02 01:11:53;;;;;;;3.90;3.15;;;;;;;15.05;100.00;96340.97;2049430;28;20039;-42
2022/08/02 01:12:54;;;;;;;5.10;3.10;;;;;;;15.03;100.00;96341.06;2065083;28;20057;-43
2022/08/02 01:13:57;;;;;;;6.35;3.58;;;;;;;15.02;99.93;96347.22;2057256;28;20541;-46
2022/08/02 01:15:02;;;;;;;5.30;3.00;;;;;;;15.03;99.11;96341.06;2057617;28;20046;-42
2022/08/02 01:16:08;;;;;;;4.35;2.50;;;;;;;15.06;98.14;96335.66;2058539;28;20050;-43
2022/08/02 01:17:49;;;;;;;4.00;2.70;;;;;;;15.04;98.20;96340.13;2065594;28;20053;-42
2022/08/02 01:18:52;;;;;;;4.55;2.80;;;;;;;15.05;98.21;96336.59;2070729;28;20065;-43
2022/08/02 01:19:56;;;;;;;4.25;2.70;;;;;;;15.04;97.79;96331.44;2068104;28;20050;-41
2022/08/02 01:21:22;;;;;;;4.80;2.88;;;;;;;15.03;97.59;96332.41;2057617;28;20098;-41
2022/08/02 01:22:46;;;;;;;4.68;2.40;;;;;;;15.01;97.84;96335.09;2048021;28;20069;-46
2022/08/02 01:24:19;;;;;;;4.95;2.67;;;;;;;15.03;98.16;96335.84;2064731;28;20415;-45
2022/08/02 01:25:27;;;;;;;4.43;2.90;;;;;;;15.01;97.78;96329.88;2064766;28;20047;-42
2022/08/02 01:26:48;;;;;;;4.72;2.75;;;;;;;15.03;98.33;96329.78;2050342;28;20054;-43
2022/08/02 01:28:16;;;;;;;5.10;2.90;;;;;;;15.00;98.09;96333.41;2063311;28;20468;-43
2022/08/02 01:29:28;;;;;;;5.82;3.33;;;;;;;14.99;98.56;96331.72;2060416;28;20112;-42
2022/08/02 01:30:29;;;;;;;6.10;2.92;;;;;;;14.98;98.50;96330.03;2070627;28;20080;-42
2022/08/02 01:31:50;;;;;;;5.90;3.35;;;;;;;15.03;98.89;96335.84;2049247;29;20043;-45
2022/08/02 01:32:53;;;;;;;4.10;2.97;;;;;;;15.02;98.49;96328.91;2057835;28;20056;-41
2022/08/02 01:34:05;;;;;;;5.20;2.83;;;;;;;15.02;98.56;96325.47;2057462;28;20556;-43
2022/08/02 01:35:10;;;;;;;6.57;3.10;;;;;;;14.99;98.44;96329.09;2058533;28;20050;-41
2022/08/02 01:36:12;;;;;;;5.85;2.97;;;;;;;15.02;98.32;96322.84;2058212;28;20050;-42
2022/08/02 01:37:17;;;;;;;5.25;3.50;;;;;;;14.93;98.77;96308.56;2048809;28;20047;-43
2022/08/02 01:38:31;;;;;;;8.50;3.67;;;;;;;15.02;98.89;96328.09;2042434;28;20052;-41
2022/08/02 01:39:33;;;;;;;6.68;3.47;;;;;;;15.00;99.02;96328.19;2052734;28;20529;-43
2022/08/02 01:40:35;;;;;;;7.30;3.83;;;;;;;14.98;99.28;96335.28;2065376;28;20042;-42
2022/08/02 01:41:36;;;;;;;7.15;3.15;;;;;;;14.98;99.20;96330.03;2064746;28;20057;-43
2022/08/02 01:42:40;;;;;;;5.50;3.35;;;;;;;14.97;99.48;96328.38;2041232;28;20050;-42
2022/08/02 01:43:41;;;;;;;5.72;3.33;;;;;;;14.94;99.35;96333.75;2041871;28;20046;-43
2022/08/02 01:44:43;;;;;;;7.30;3.88;;;;;;;14.92;98.81;96326.03;2041114;29;20055;-46
2022/08/02 01:45:44;;;;;;;4.15;3.15;;;;;;;14.91;100.00;96323.50;2056590;28;20050;-43
2022/08/02 01:46:45;;;;;;;6.28;4.32;;;;;;;14.94;99.80;96332.00;2048783;29;20573;-43
2022/08/02 01:47:46;;;;;;;5.72;4.05;;;;;;;14.89;99.92;96326.22;2041243;28;20055;-44
2022/08/02 01:48:47;;;;;;;5.40;4.22;;;;;;;14.90;99.91;96332.28;2048760;28;20047;-43
2022/08/02 01:49:51;;;;;;;6.82;4.30;;;;;;;14.85;99.96;96323.84;2053609;28;20062;-46
2022/08/02 01:50:52;;;;;;;8.63;4.57;;;;;;;14.89;99.71;96335.81;2064853;28;20053;-42
2022/08/02 01:53:14;;;;;;;5.60;3.90;;;;;;;14.85;100.00;96323.84;2056807;28;20049;-41
2022/08/02 01:54:17;;;;;;;8.27;3.90;;;;;;;14.84;100.00;96332.66;2067515;28;20058;-43
2022/08/02 01:55:21;;;;;;;7.82;4.80;;;;;;;14.82;100.00;96330.09;2073304;28;20054;-42
2022/08/02 01:56:22;;;;;;;11.05;4.85;;;;;;;14.77;100.00;96327.75;2072815;28;20550;-42
2022/08/02 01:57:24;;;;;;;7.90;4.50;;;;;;;14.77;100.00;96335.59;2056783;28;20481;-45
2022/08/02 01:58:28;;;;;;;8.30;4.80;;;;;;;14.76;100.00;96330.47;2057061;28;20382;-42
2022/08/02 01:59:30;;;;;;;9.52;5.30;;;;;;;14.72;100.00;96332.41;2057407;28;20039;-43
2022/08/02 02:00:34;;;;;;;8.43;5.20;;;;;;;14.71;100.00;96328.13;2048593;28;20058;-45
2022/08/02 02:01:35;;;;;;;8.20;4.65;;;;;;;14.70;100.00;96330.81;2042037;28;20059;-43
2022/08/02 02:02:40;;;;;;;11.68;5.30;;;;;;;14.66;100.00;96332.78;2040791;28;20043;-43
2022/08/02 02:03:41;;;;;;;7.88;4.55;;;;;;;14.60;100.00;96327.06;2050764;28;20043;-42
2022/08/02 02:04:43;;;;;;;14.07;5.60;;;;;;;14.61;100.00;96326.97;2056820;28;20543;-43
2022/08/02 02:05:46;;;;;;;7.07;4.68;;;;;;;14.59;100.00;96328.00;2057019;28;20524;-44
2022/08/02 02:06:48;;;;;;;11.38;5.10;;;;;;;14.58;100.00;96328.94;2056899;28;20055;-43
2022/08/02 02:07:50;;;;;;;11.32;5.50;;;;;;;14.56;100.00;96342.06;2072338;28;20060;-43
2022/08/02 02:08:51;;;;;;;8.40;5.15;;;;;;;14.51;100.00;96326.66;2056843;28;20042;-41
2022/08/02 02:09:53;;;;;;;12.32;5.65;;;;;;;14.49;100.00;96322.44;2048410;28;20043;-43
2022/08/02 02:10:56;;;;;;;10.10;5.30;;;;;;;14.57;100.00;96341.16;2041650;28;20052;-43
2022/08/02 02:11:58;;;;;;;7.88;5.50;;;;;;;14.57;100.00;96335.94;2057167;28;20417;-42
2022/08/02 02:13:01;;;;;;;10.15;6.50;;;;;;;14.56;100.00;96332.44;2064844;28;20432;-43
2022/08/02 02:14:03;;;;;;;9.43;5.88;;;;;;;14.53;100.00;96326.56;2057302;28;20162;-42
2022/08/02 02:15:04;;;;;;;9.98;5.90;;;;;;;14.55;100.00;96329.94;2064732;28;20061;-44
2022/08/02 02:16:06;;;;;;;9.43;5.90;;;;;;;14.53;100.00;96331.81;2056822;28;20065;-42
2022/08/02 02:17:07;;;;;;;12.32;6.60;;;;;;;14.50;100.00;96335.41;2040777;29;20055;-42
2022/08/02 02:18:10;;;;;;;13.55;7.65;;;;;;;14.46;100.00;96336.53;2056752;28;20151;-42
2022/08/02 02:19:11;;;;;;;12.07;6.43;;;;;;;14.46;100.00;96333.91;2049156;28;20050;-42
2022/08/02 02:20:16;;;;;;;10.05;6.35;;;;;;;14.41;100.00;96340.31;2041029;28;20052;-44
2022/08/02 02:21:17;;;;;;;13.95;7.30;;;;;;;14.37;100.00;96331.81;2064819;28;20046;-44
2022/08/02 02:22:18;;;;;;;10.75;6.32;;;;;;;14.35;100.00;96333.66;2064086;28;20523;-43
2022/08/02 02:23:19;;;;;;;10.82;5.85;;;;;;;14.33;100.00;96330.31;2056543;28;20054;-43
2022/08/02 02:24:20;;;;;;;13.10;5.97;;;;;;;14.32;100.00;96329.44;2056936;28;20046;-46
2022/08/02 02:25:22;;;;;;;13.35;5.20;;;;;;;14.33;100.00;96327.69;2056614;28;20085;-42
2022/08/02 02:26:25;;;;;;;6.72;4.75;;;;;;;14.31;100.00;96326.94;2064524;28;20481;-42
2022/08/02 02:27:26;;;;;;;7.32;5.03;;;;;;;14.31;100.00;96324.31;2049622;28;20070;-44
2022/08/02 02:28:29;;;;;;;7.13;5.03;;;;;;;14.29;100.00;96332.22;2064860;28;20046;-41
2022/08/02 02:29:30;;;;;;;8.20;4.50;;;;;;;14.30;100.00;96322.63;2056720;28;20444;-44
2022/08/02 02:30:32;;;;;;;8.80;5.32;;;;;;;14.28;100.00;96325.34;2049012;28;20051;-41
2022/08/02 02:31:37;;;;;;;9.27;5.88;;;;;;;14.28;100.00;96325.34;2064640;28;20038;-42
2022/08/02 02:32:38;;;;;;;10.77;5.63;;;;;;;14.28;100.00;96329.72;2065040;28;20104;-43
2022/08/02 02:33:43;;;;;;;8.32;5.40;;;;;;;14.24;100.00;96334.25;2064153;28;20058;-44
2022/08/02 02:34:44;;;;;;;7.55;5.30;;;;;;;14.26;100.00;96331.56;2072589;28;20511;-42
2022/08/02 02:35:46;;;;;;;8.52;4.90;;;;;;;14.24;100.00;96333.44;2056877;28;20461;-43
2022/08/02 02:36:49;;;;;;;9.85;4.88;;;;;;;14.26;100.00;96335.03;2048856;28;20513;-45
2022/08/02 02:37:51;;;;;;;8.75;4.95;;;;;;;14.23;100.00;96329.13;2064663;28;20050;-44
2022/08/02 02:38:52;;;;;;;8.10;5.10;;;;;;;14.23;100.00;96329.97;2072741;28;20049;-44
2022/08/02 02:39:53;;;;;;;9.18;5.53;;;;;;;14.19;100.00;96328.44;2056599;28;20042;-46
2022/08/02 02:40:55;;;;;;;9.07;5.25;;;;;;;14.20;100.00;96321.47;2040929;28;20058;-42
2022/08/02 02:41:57;;;;;;;7.53;4.97;;;;;;;14.16;100.00;96326.00;2056504;28;20046;-43
2022/08/02 02:42:59;;;;;;;10.13;4.57;;;;;;;14.16;100.00;96323.41;2049324;28;20378;-44
2022/08/02 02:44:01;;;;;;;12.70;5.35;;;;;;;14.12;100.00;96317.53;2048544;28;20055;-45
2022/08/02 02:45:02;;;;;;;5.45;4.60;;;;;;;14.13;100.00;96318.34;2064271;28;20054;-44
2022/08/02 02:46:04;;;;;;;6.53;4.95;;;;;;;14.11;100.00;96328.03;2072680;28;20053;-44
2022/08/02 02:47:06;;;;;;;5.95;4.35;;;;;;;14.10;100.00;96327.22;2073010;28;20049;-42
2022/08/02 02:48:07;;;;;;;8.55;4.80;;;;;;;14.11;100.00;96325.44;2072768;28;20052;-42
2022/08/02 02:49:09;;;;;;;11.02;4.78;;;;;;;14.11;100.00;96326.28;2071782;28;20053;-44
2022/08/02 02:50:10;;;;;;;10.55;5.50;;;;;;;14.11;100.00;96322.81;2048563;28;20051;-45
2022/08/02 02:51:11;;;;;;;6.93;4.82;;;;;;;14.08;100.00;96320.38;2039638;29;20421;-42
2022/08/02 02:52:14;;;;;;;7.90;4.80;;;;;;;14.08;100.00;96329.06;2047746;29;20059;-45
2022/08/02 02:53:16;;;;;;;7.50;5.45;;;;;;;14.07;100.00;96326.53;2049027;28;20059;-43
2022/08/02 02:54:18;;;;;;;9.18;5.55;;;;;;;14.06;100.00;96320.50;2048410;29;20047;-43
2022/08/02 02:55:19;;;;;;;11.52;5.22;;;;;;;14.03;100.00;96322.41;2048628;29;20057;-44
2022/08/02 02:56:20;;;;;;;9.40;4.70;;;;;;;14.06;100.00;96328.31;2032766;29;20415;-46
2022/08/02 02:57:21;;;;;;;9.40;4.75;;;;;;;14.02;100.00;96324.19;2048220;28;20063;-44
2022/08/02 02:58:22;;;;;;;7.80;5.43;;;;;;;14.04;100.00;96327.56;2056845;28;20050;-46
2022/08/02 02:59:23;;;;;;;8.18;5.28;;;;;;;14.01;100.00;96321.69;2041013;29;20505;-44
2022/08/02 03:02:47;;;;;;;11.20;5.70;;;;;;;13.97;100.00;96327.97;2064209;28;20038;-42
2022/08/02 03:03:48;;;;;;;8.88;5.18;;;;;;;13.94;100.00;96326.38;2065674;28;20618;-44
2022/08/02 03:04:49;;;;;;;8.77;5.43;;;;;;;13.94;100.00;96329.00;2047892;29;20047;-43
2022/08/02 03:05:50;;;;;;;8.80;5.43;;;;;;;13.94;100.00;96330.75;2040546;28;20532;-47
2022/08/02 03:06:52;;;;;;;11.20;5.88;;;;;;;13.91;100.00;96318.72;2056453;28;20054;-43
2022/08/02 03:07:53;;;;;;;11.55;5.07;;;;;;;13.91;100.00;96331.78;2056533;28;20054;-44
2022/08/02 03:08:55;;;;;;;7.65;4.18;;;;;;;13.94;100.00;96328.16;2033010;29;20059;-46
2022/08/02 03:09:56;;;;;;;7.65;4.60;;;;;;;13.93;100.00;96329.09;2045522;28;20556;-43
2022/08/02 03:10:57;;;;;;;8.85;5.03;;;;;;;13.89;100.00;96329.22;2056357;28;20050;-43
2022/08/02 03:11:58;;;;;;;8.93;5.03;;;;;;;13.93;100.00;96340.38;2047906;29;20548;-43
2022/08/02 03:13:00;;;;;;;6.35;5.00;;;;;;;13.93;100.00;96336.94;2048470;28;20054;-43
2022/08/02 03:14:03;;;;;;;7.57;4.53;;;;;;;13.89;100.00;96339.69;2056448;28;20051;-45
2022/08/02 03:15:06;;;;;;;6.55;4.47;;;;;;;13.89;100.00;96333.63;2057016;28;20054;-43
2022/08/02 03:16:07;;;;;;;6.40;4.60;;;;;;;13.89;100.00;96336.22;2064066;28;20046;-46
2022/08/02 03:17:08;;;;;;;6.65;4.70;;;;;;;13.87;100.00;96335.47;2056636;28;20053;-43
2022/08/02 03:18:10;;;;;;;7.00;4.30;;;;;;;13.88;100.00;96335.41;2048359;29;20054;-43
2022/08/02 03:19:11;;;;;;;7.65;4.60;;;;;;;13.90;100.00;96335.31;2033080;29;20103;-46
2022/08/02 03:20:14;;;;;;;9.35;4.82;;;;;;;13.91;100.00;96329.16;2048162;29;20058;-43
2022/08/02 03:21:15;;;;;;;7.38;5.15;;;;;;;13.88;100.00;96340.63;2056843;28;20050;-42
2022/08/02 03:22:17;;;;;;;6.50;4.20;;;;;;;13.88;100.00;96340.63;2071504;28;20056;-41
2022/08/02 03:23:18;;;;;;;6.30;4.32;;;;;;;13.90;100.00;96340.53;2064264;28;20431;-43
2022/08/02 03:24:19;;;;;;;6.65;4.57;;;;;;;13.87;100.00;96335.47;2064337;28;20050;-45
2022/08/02 03:25:21;;;;;;;6.30;4.32;;;;;;;13.87;100.00;96346.78;2072288;28;20050;-44
2022/08/02 03:26:22;;;;;;;7.75;5.15;;;;;;;13.84;100.00;96344.31;2072843;28;20046;-41
2022/08/02 03:27:23;;;;;;;8.32;4.75;;;;;;;13.84;100.00;96333.03;2072270;28;20042;-44
2022/08/02 03:28:24;;;;;;;7.20;5.25;;;;;;;13.84;100.00;96333.88;2056435;28;20039;-43
2022/08/02 03:29:25;;;;;;;8.15;5.07;;;;;;;13.83;100.00;96345.25;2040713;28;20051;-44
2022/08/02 03:30:27;;;;;;;6.80;4.50;;;;;;;13.85;100.00;96343.41;2064722;28;20516;-44
2022/08/02 03:31:28;;;;;;;10.18;5.05;;;;;;;13.85;100.00;96342.56;2047915;28;20548;-44
2022/08/02 03:32:29;;;;;;;5.78;4.25;;;;;;;13.85;100.00;96337.34;2048625;28;20063;-41
2022/08/02 03:33:30;;;;;;;6.35;4.35;;;;;;;13.85;100.00;96346.00;2048498;29;20051;-43
2022/08/02 03:34:32;;;;;;;6.93;4.47;;;;;;;13.88;100.00;96338.00;2048055;28;20047;-45
2022/08/02 03:35:33;;;;;;;6.47;4.90;;;;;;;13.88;100.00;96343.22;2056644;28;20046;-43
2022/08/02 03:36:34;;;;;;;7.82;4.95;;;;;;;13.85;100.00;96340.78;2048223;29;20056;-43
2022/08/02 03:37:36;;;;;;;7.15;4.93;;;;;;;13.84;100.00;96326.03;2048613;28;20493;-42
2022/08/02 03:38:37;;;;;;;8.00;4.65;;;;;;;13.82;100.00;96321.81;2055918;28;20501;-43
2022/08/02 03:39:38;;;;;;;7.75;5.30;;;;;;;13.77;100.00;96329.94;2048204;28;20047;-42
2022/08/02 03:40:40;;;;;;;7.43;4.88;;;;;;;13.80;100.00;96331.53;2047979;29;20054;-43
2022/08/02 03:41:42;;;;;;;9.80;5.13;;;;;;;13.76;100.00;96330.00;2056471;28;20042;-41
2022/08/02 03:42:43;;;;;;;9.50;5.18;;;;;;;13.76;100.00;96336.06;2055667;28;20054;-43
2022/08/02 03:43:44;;;;;;;9.45;5.18;;;;;;;13.75;100.00;96330.94;2047928;28;20070;-45
2022/08/02 03:44:47;;;;;;;9.50;5.43;;;;;;;13.77;100.00;96337.75;2056294;28;20464;-42
2022/08/02 03:45:48;;;;;;;8.18;5.53;;;;;;;13.77;100.00;96335.16;2056338;28;20046;-44
2022/08/02 03:46:49;;;;;;;10.27;4.88;;;;;;;13.78;100.00;96336.81;2048173;29;20062;-42
2022/08/02 03:47:50;;;;;;;7.32;5.05;;;;;;;13.77;100.00;96337.75;2040829;28;20055;-45
2022/08/02 03:48:52;;;;;;;9.63;5.75;;;;;;;13.75;100.00;96334.38;2032575;29;20055;-43
2022/08/02 03:49:54;;;;;;;9.65;5.57;;;;;;;13.74;100.00;96334.44;2048306;28;20054;-41
2022/08/02 03:50:55;;;;;;;10.30;6.25;;;;;;;13.71;100.00;96339.84;2055697;28;20050;-44
2022/08/02 03:51:56;;;;;;;10.82;6.00;;;;;;;13.70;100.00;96338.16;2047922;28;20060;-42
2022/08/02 03:52:57;;;;;;;11.25;6.28;;;;;;;13.70;100.00;96339.00;2056259;28;20373;-44
2022/08/02 03:53:59;;;;;;;9.10;5.97;;;;;;;13.70;100.00;96346.00;2048121;28;20070;-44
2022/08/02 03:55:00;;;;;;;9.57;6.20;;;;;;;13.67;100.00;96344.38;2040408;28;20055;-44
2022/08/02 03:56:02;;;;;;;10.63;7.03;;;;;;;13.65;100.00;96357.50;2048303;29;20438;-44
2022/08/02 03:57:06;;;;;;;10.57;6.13;;;;;;;13.65;100.00;96347.06;2040129;28;20043;-44
2022/08/02 03:58:08;;;;;;;8.77;6.00;;;;;;;13.66;100.00;96350.53;2048927;28;20043;-43
2022/08/02 03:59:10;;;;;;;9.18;5.78;;;;;;;13.64;100.00;96342.78;2056470;28;20046;-45
2022/08/02 04:00:16;;;;;;;8.32;5.45;;;;;;;13.63;100.00;96346.34;2048274;28;20047;-43
2022/08/02 04:01:18;;;;;;;10.45;5.72;;;;;;;13.64;100.00;96350.63;2048775;28;20449;-43
2022/08/02 04:02:19;;;;;;;8.38;5.38;;;;;;;13.67;100.00;96347.00;2048208;28;20055;-46
2022/08/02 04:03:20;;;;;;;10.73;6.00;;;;;;;13.67;100.00;96354.84;2047856;29;20058;-43
2022/08/02 04:04:21;;;;;;;9.05;5.78;;;;;;;13.66;100.00;96351.38;2056412;28;20525;-45
2022/08/02 04:05:22;;;;;;;10.50;6.60;;;;;;;13.65;100.00;96362.72;2055878;28;20053;-42
2022/08/02 04:06:24;;;;;;;10.93;6.80;;;;;;;13.63;100.00;96363.72;2048439;29;20525;-42
2022/08/02 04:07:25;;;;;;;13.65;7.20;;;;;;;13.66;100.00;96364.44;2047989;28;20394;-43
2022/08/02 04:08:27;;;;;;;9.10;6.60;;;;;;;13.66;100.00;96364.44;2063805;28;20683;-44
2022/08/02 04:09:28;;;;;;;12.38;7.63;;;;;;;13.63;100.00;96355.91;2065844;28;20543;-43
2022/08/02 04:10:29;;;;;;;14.15;6.85;;;;;;;13.60;100.00;96356.06;2048550;28;20742;-42
2022/08/02 04:12:31;;;;;;;16.42;7.57;;;;;;;13.61;100.00;96361.22;2055851;28;20051;-45
2022/08/02 04:13:34;;;;;;;11.88;7.55;;;;;;;13.59;100.00;96359.63;2058101;28;20050;-42
2022/08/02 04:14:35;;;;;;;14.82;8.02;;;;;;;13.60;100.00;96361.28;2066008;28;20043;-45
2022/08/02 04:15:37;;;;;;;9.88;6.95;;;;;;;13.59;100.00;96357.84;2065919;28;20039;-42
2022/08/02 04:16:42;;;;;;;10.63;7.07;;;;;;;13.64;100.00;96360.22;2058002;28;20042;-43
2022/08/02 04:17:48;;;;;;;11.05;6.75;;;;;;;13.51;100.00;96339.16;2057958;28;20055;-46
2022/08/02 04:18:54;;;;;;;13.93;7.10;;;;;;;13.58;100.00;96350.97;2051414;28;20046;-42
2022/08/02 04:20:02;;;;;;;8.45;6.05;;;;;;;13.64;100.00;96357.63;2050768;28;20047;-46
2022/08/02 04:21:04;;;;;;;9.38;6.13;;;;;;;13.64;100.00;96358.44;2050973;28;20062;-45
2022/08/02 04:22:06;;;;;;;10.25;6.13;;;;;;;13.63;100.00;96353.28;2058067;28;20058;-43
2022/08/02 04:23:08;;;;;;;11.15;6.88;;;;;;;13.63;100.00;96354.16;2057490;28;20073;-41
2022/08/02 04:24:09;;;;;;;8.85;6.03;;;;;;;13.62;100.00;96357.69;2034591;28;20055;-43
2022/08/02 04:25:11;;;;;;;8.65;6.40;;;;;;;13.66;100.00;96358.38;2034145;29;20054;-42
2022/08/02 04:26:12;;;;;;;11.32;6.82;;;;;;;13.68;100.00;96361.72;2049956;28;20051;-44
2022/08/02 04:27:13;;;;;;;9.57;6.00;;;;;;;13.69;100.00;96358.22;2057674;28;20065;-43
2022/08/02 04:28:15;;;;;;;12.02;6.70;;;;;;;13.70;100.00;96354.66;2041815;28;20044;-43
2022/08/02 04:29:16;;;;;;;9.98;7.15;;;;;;;13.72;100.00;96358.03;2050286;28;20047;-44
2022/08/02 04:30:17;;;;;;;9.50;5.70;;;;;;;13.73;100.00;96354.50;2049990;28;20062;-42
2022/08/02 04:31:19;;;;;;;16.38;6.55;;;;;;;13.77;100.00;96360.41;2057485;28;20042;-45
2022/08/02 04:32:20;;;;;;;8.85;6.57;;;;;;;13.77;100.00;96355.19;2057392;28;20060;-45
2022/08/02 04:33:21;;;;;;;7.63;5.00;;;;;;;13.84;100.00;96356.53;2049781;28;20042;-42
2022/08/02 04:34:23;;;;;;;8.20;5.10;;;;;;;13.86;100.00;96352.06;2065452;28;20058;-45
2022/08/02 04:35:24;;;;;;;10.02;5.97;;;;;;;13.89;100.00;96350.13;2073824;28;20049;-44
2022/08/02 04:36:25;;;;;;;7.95;5.13;;;;;;;13.91;100.00;96344.81;2049464;28;20050;-44
2022/08/02 04:37:26;;;;;;;8.75;5.70;;;;;;;13.93;100.00;96347.38;2049495;28;20050;-46
2022/08/02 04:38:28;;;;;;;10.25;5.68;;;;;;;13.94;100.00;96352.50;2049792;28;20051;-43
2022/08/02 04:39:29;;;;;;;9.38;5.85;;;;;;;13.98;100.00;96353.16;2057329;28;20045;-43
2022/08/02 04:40:30;;;;;;;7.90;5.25;;;;;;;14.02;100.00;96352.06;2065425;28;20389;-43
2022/08/02 04:41:40;;;;;;;9.63;5.50;;;;;;;14.06;100.00;96349.22;2073666;28;20551;-42
2022/08/02 04:42:41;;;;;;;6.15;4.65;;;;;;;14.08;100.00;96349.94;2068319;28;20050;-44
2022/08/02 04:43:42;;;;;;;10.82;5.20;;;;;;;14.12;100.00;96350.63;2049684;29;20044;-43
2022/08/02 04:44:44;;;;;;;7.15;5.22;;;;;;;14.13;100.00;96354.91;2040817;28;20565;-43
2022/08/02 04:45:47;;;;;;;7.93;5.03;;;;;;;14.18;100.00;96365.13;2049173;28;20051;-47
2022/08/02 04:46:48;;;;;;;13.00;5.80;;;;;;;14.20;100.00;96358.88;2057649;28;20054;-43
2022/08/02 04:47:49;;;;;;;10.38;5.65;;;;;;;14.22;100.00;96361.41;2064902;28;20057;-44
2022/08/02 04:48:50;;;;;;;9.15;5.50;;;;;;;14.25;100.00;96356.03;2057737;28;20054;-43
2022/08/02 04:49:52;;;;;;;9.80;5.53;;;;;;;14.25;100.00;96356.88;2055295;28;20123;-43
2022/08/02 04:50:53;;;;;;;7.70;5.68;;;;;;;14.27;100.00;96356.75;2065431;28;20046;-43
2022/08/02 04:51:54;;;;;;;7.75;5.13;;;;;;;14.30;100.00;96364.41;2057321;28;20050;-42
2022/08/02 04:52:56;;;;;;;8.23;4.95;;;;;;;14.31;100.00;96364.34;2057022;28;20046;-44
2022/08/02 04:53:57;;;;;;;7.15;5.38;;;;;;;14.35;100.00;96359.78;2049537;28;20080;-46
2022/08/02 04:54:58;;;;;;;7.32;5.18;;;;;;;14.38;100.00;96364.84;2041833;28;20592;-43
2022/08/02 04:56:00;;;;;;;6.68;5.03;;;;;;;14.41;100.00;96367.28;2049210;28;20047;-44